Mackinac Island, MI (49757)

2:43 PM EST on February 14, 2016 (GMT -0500)
KMIMACKI2 | | Change Station
CLOSE
Current Station
Personal Weather Station
Location: Mackinac Island, MI
Elevation: 594 ft
Nearby Weather Stations

Elev 594 ft 45.85 °N, 84.62 °W | Updated 12 minutes ago

Overcast
Overcast
19.4 °F
Feels Like 7 °F
N
12.0
Wind Variable Wind from SSE

Today
High -- | Low -- °F
--% Chance of Precip.
Yesterday
High -- | Low -- °F
Precip. -- in
Pressure 30.26 in
Visibility 10.0 miles
Clouds Overcast 3600 ft
Windchill 7 °F
Dew Point 11 °F
Humidity 69%
Rainfall 0.00 in
Snow Depth Not available.
7:43 AM 6:02 PM
Waxing Crescent, 44% visible
METAR KMCD 141936Z AUTO 15011G14KT 10SM OVC036 M07/M15 A3026 RMK AO2 T10711149
Pressure 30.26 in
Visibility 10.0 miles
Clouds Overcast 3600 ft
Windchill 7 °F
Dew Point 11 °F
Humidity 69%
Rainfall 0.00 in
Snow Depth Not available.
7:43 AM 6:02 PM
Waxing Crescent, 44% visible
METAR KMCD 141936Z AUTO 15011G14KT 10SM OVC036 M07/M15 A3026 RMK AO2 T10711149

10-Day Weather Forecast

Almanac

Astronomy

Feb. 14, 2016 Rise Set
Actual Time
Civil Twilight
Nautical Twilight
Astronomical Twilight
Moon
Length of Visible Light
Length of Day
Tomorrow will be .
, % of the Moon is Illuminated

Today's Extremes

State Highs State Lows

Community

WunderPhotos

Upload Photos

1,892,879 photos uploaded!

WunderBlog® & News

Nearby

Air Quality

  Air Quality AQ Index Pollutant
Not available.

Snow Depth

Station Depth Elevation

Earthquake Activity

City Distance Mag. Time & Date
Minimum magnitude displayed is 2.5.

Coastal Water Temperatures

Place Temperature

Stations

Nearby Weather Stations

Station Location Temp. Windchill Dew Point Humidity Wind Precip. Elev Updated Type
                   

Watches & Warnings

There are currently no watches in effect.